Datchet, United Kingdom
Current Conditions -  °F | °C
As of 1:20 PM on Friday 24 Oct 2014 (Local Time) from EGLL Reporting Station
Broken Clouds Broken Clouds  
Wind Chill: 16°   Ceiling: 2400
Heat Index: 16°   Visibility: 6mi
Dew Point: 14°   Wind: 9mph
Humidity: 88%   Direction: 230°SW
Pressure: 29.94"   Gusts: NA
Location:  51.48°N, 0.58°W
Report Text: EGLL 241220Z 23008KT 200V270 9999 FEW013 SCT019 BKN024 16/14 Q1014 TEMPO BKN012
Loading
Personal Weather Stations






























Interactive Weather Map
Tropical Storm Tracking
New forecast layout! Learn more

10-Day Weather Forecast

Advertisements
Track Severe Weather on mobile